createdAt,value
2018-06-24T00:00:22.919Z,1.80
2018-06-24T00:02:52.199Z,2.37
2018-06-24T00:05:21.437Z,2.50
2018-06-24T00:07:50.731Z,2.40
2018-06-24T00:10:20.049Z,2.70
2018-06-24T00:12:49.398Z,2.10
2018-06-24T00:15:18.731Z,2.40
2018-06-24T00:17:48.008Z,2.73
2018-06-24T00:20:17.277Z,1.93
2018-06-24T00:22:46.539Z,2.00
2018-06-24T00:25:15.874Z,2.57
2018-06-24T00:27:45.153Z,2.20
2018-06-24T00:30:14.406Z,2.27
2018-06-24T00:32:43.689Z,2.23
2018-06-24T00:35:12.933Z,2.10
2018-06-24T00:37:42.202Z,2.60
2018-06-24T00:40:11.704Z,2.10
2018-06-24T00:42:40.969Z,2.10
2018-06-24T00:45:10.276Z,2.13
2018-06-24T00:47:39.537Z,2.37
2018-06-24T00:50:08.882Z,2.00
2018-06-24T00:52:38.093Z,2.60
2018-06-24T00:55:07.381Z,2.20
2018-06-24T00:57:36.647Z,2.27
2018-06-24T01:00:10.857Z,2.10
2018-06-24T01:02:40.771Z,2.00
2018-06-24T01:05:10.617Z,2.20
2018-06-24T01:07:40.281Z,2.50
2018-06-24T01:10:09.698Z,2.07
2018-06-24T01:12:39.087Z,2.30
2018-06-24T01:15:08.413Z,2.60
2018-06-24T01:17:37.890Z,2.47
2018-06-24T01:20:07.297Z,2.33
2018-06-24T01:22:36.538Z,2.10
2018-06-24T01:25:05.797Z,2.10
2018-06-24T01:27:35.097Z,2.13
2018-06-24T01:30:04.885Z,2.43
2018-06-24T01:32:34.121Z,2.30
2018-06-24T01:35:04.889Z,2.17
2018-06-24T01:37:34.045Z,2.27
2018-06-24T01:40:03.303Z,2.40
2018-06-24T01:42:32.275Z,2.50
2018-06-24T01:45:01.447Z,2.20
2018-06-24T01:47:30.826Z,2.10
2018-06-24T01:50:00.154Z,2.33
2018-06-24T01:52:29.414Z,2.40
2018-06-24T01:54:58.658Z,2.47
2018-06-24T01:57:27.929Z,2.37
2018-06-24T01:59:57.261Z,2.50
2018-06-24T02:02:26.509Z,2.20
2018-06-24T02:04:55.834Z,2.50
2018-06-24T02:07:25.097Z,2.40
2018-06-24T02:09:54.342Z,2.00
2018-06-24T02:12:23.626Z,2.43
2018-06-24T02:14:52.898Z,2.30
2018-06-24T02:17:22.210Z,2.53
2018-06-24T02:19:51.842Z,2.37
2018-06-24T02:22:21.085Z,2.20
2018-06-24T02:24:50.326Z,2.50
2018-06-24T02:27:19.626Z,2.83
2018-06-24T02:29:48.865Z,2.30
2018-06-24T02:32:18.163Z,2.30
2018-06-24T02:34:47.406Z,2.03
2018-06-24T02:37:16.658Z,1.90
2018-06-24T02:39:45.928Z,2.93
2018-06-24T02:42:15.180Z,2.20
2018-06-24T02:44:44.465Z,2.30
2018-06-24T02:47:13.783Z,2.10
2018-06-24T02:49:43.066Z,2.17
2018-06-24T02:52:12.310Z,2.97
2018-06-24T02:54:41.551Z,2.00
2018-06-24T02:57:10.515Z,2.37
2018-06-24T02:59:39.679Z,2.27
2018-06-24T03:02:09.128Z,2.10
2018-06-24T03:04:38.375Z,2.00
2018-06-24T03:07:07.703Z,2.20
2018-06-24T03:09:36.974Z,2.10
2018-06-24T03:12:06.231Z,1.90
2018-06-24T03:14:35.492Z,2.20
2018-06-24T03:17:04.814Z,2.00
2018-06-24T03:19:34.093Z,2.10
2018-06-24T03:22:03.021Z,2.10
2018-06-24T03:24:32.182Z,2.17
2018-06-24T03:27:01.471Z,2.37
2018-06-24T03:29:30.754Z,2.03
2018-06-24T03:32:00.131Z,2.23
2018-06-24T03:34:29.501Z,2.03
2018-06-24T03:36:58.771Z,1.73
2018-06-24T03:39:28.018Z,2.20
2018-06-24T03:41:57.298Z,2.10
2018-06-24T03:44:26.683Z,2.17
2018-06-24T03:46:55.645Z,1.97
2018-06-24T03:49:24.888Z,2.07
2018-06-24T03:51:54.217Z,2.30
2018-06-24T03:54:23.490Z,2.60
2018-06-24T03:56:52.733Z,2.03
2018-06-24T03:59:21.988Z,2.10
2018-06-24T04:01:51.287Z,2.40
2018-06-24T04:04:20.547Z,2.37
2018-06-24T04:06:49.940Z,2.63
2018-06-24T04:09:19.189Z,2.27
2018-06-24T04:11:48.454Z,2.10
2018-06-24T04:14:17.725Z,2.00
2018-06-24T04:16:47.752Z,1.90
2018-06-24T04:19:16.881Z,1.97
2018-06-24T04:21:46.058Z,2.00
2018-06-24T04:24:15.363Z,2.53
2018-06-24T04:26:44.589Z,2.10
2018-06-24T04:29:14.046Z,2.13
2018-06-24T04:31:43.391Z,2.33
2018-06-24T04:34:12.634Z,1.80
2018-06-24T04:36:42.019Z,2.30
2018-06-24T04:39:11.676Z,2.10
2018-06-24T04:41:40.991Z,2.00
2018-06-24T04:44:10.197Z,2.10
2018-06-24T04:46:39.529Z,2.10
2018-06-24T04:49:08.804Z,1.90
2018-06-24T04:51:38.074Z,2.03
2018-06-24T04:54:07.395Z,2.37
2018-06-24T04:56:36.665Z,2.10
2018-06-24T04:59:05.953Z,2.17
2018-06-24T05:01:35.431Z,2.53
2018-06-24T05:04:04.717Z,2.20
2018-06-24T05:06:33.897Z,2.23
2018-06-24T05:09:03.202Z,1.90
2018-06-24T05:11:32.839Z,2.10
2018-06-24T05:14:02.103Z,2.10
2018-06-24T05:16:31.101Z,2.10
2018-06-24T05:19:00.331Z,2.10
2018-06-24T05:21:29.869Z,2.30
2018-06-24T05:23:59.331Z,2.10
2018-06-24T05:26:28.618Z,2.20
2018-06-24T05:28:57.902Z,2.03
2018-06-24T05:31:27.235Z,2.13
2018-06-24T05:33:57.245Z,2.03
2018-06-24T05:36:26.473Z,2.00
2018-06-24T05:38:55.866Z,2.43
2018-06-24T05:41:24.770Z,2.23
2018-06-24T05:43:54.024Z,2.10
2018-06-24T05:46:23.258Z,1.87
2018-06-24T05:48:52.601Z,1.70
2018-06-24T05:51:21.850Z,1.63
2018-06-24T05:53:51.142Z,1.70
2018-06-24T05:56:20.394Z,2.07
2018-06-24T05:58:49.643Z,2.00
2018-06-24T06:01:18.933Z,2.00
2018-06-24T06:03:48.171Z,2.10
2018-06-24T06:06:17.107Z,1.97
2018-06-24T06:08:46.294Z,2.27
2018-06-24T06:11:15.550Z,2.60
2018-06-24T06:13:44.801Z,1.90
2018-06-24T06:16:14.182Z,2.10
2018-06-24T06:18:43.370Z,2.07
2018-06-24T06:21:13.198Z,2.17
2018-06-24T06:23:42.489Z,2.03
2018-06-24T06:26:11.752Z,1.77
2018-06-24T06:28:41.031Z,2.13
2018-06-24T06:31:10.258Z,1.90
2018-06-24T06:33:39.185Z,2.00
2018-06-24T06:36:08.087Z,2.03
2018-06-24T06:38:37.220Z,1.80
2018-06-24T06:41:06.463Z,1.70
2018-06-24T06:43:35.862Z,1.90
2018-06-24T06:46:10.574Z,2.40
2018-06-24T06:48:39.843Z,2.20
2018-06-24T06:51:10.505Z,1.90
2018-06-24T06:53:39.422Z,1.80
2018-06-24T06:56:08.926Z,1.60
2018-06-24T06:58:38.550Z,1.80
2018-06-24T07:01:08.461Z,1.60
2018-06-24T07:03:37.898Z,1.63
2018-06-24T07:06:08.291Z,1.83
2018-06-24T07:08:37.333Z,2.47
2018-06-24T07:11:06.473Z,1.87
2018-06-24T07:13:35.671Z,2.00
2018-06-24T07:16:04.485Z,1.90
2018-06-24T07:18:33.642Z,1.87
2018-06-24T07:21:02.919Z,1.70
2018-06-24T07:23:32.546Z,1.90
2018-06-24T07:26:01.802Z,1.90
2018-06-24T07:28:31.074Z,1.97
2018-06-24T07:31:00.043Z,1.80
2018-06-24T07:33:29.271Z,1.77
2018-06-24T07:35:58.771Z,1.73
2018-06-24T07:38:27.809Z,2.03
2018-06-24T07:40:57.006Z,1.50
2018-06-24T07:43:26.269Z,1.73
2018-06-24T07:45:55.526Z,1.80
2018-06-24T07:48:24.817Z,1.90
2018-06-24T07:50:53.767Z,1.60
2018-06-24T07:53:22.901Z,1.87
2018-06-24T07:55:52.157Z,1.93
2018-06-24T07:58:21.434Z,1.73
2018-06-24T08:00:50.782Z,1.60
2018-06-24T08:03:20.139Z,1.73
2018-06-24T08:05:49.410Z,1.67
2018-06-24T08:08:18.666Z,2.00
2018-06-24T08:10:47.919Z,2.27
2018-06-24T08:13:17.226Z,1.87
2018-06-24T08:15:46.599Z,2.07
2018-06-24T08:18:15.841Z,1.70
2018-06-24T08:20:45.178Z,2.00
2018-06-24T08:23:14.422Z,1.60
2018-06-24T08:25:43.754Z,1.70
2018-06-24T08:28:12.997Z,1.57
2018-06-24T08:30:42.317Z,1.93
2018-06-24T08:33:11.550Z,1.77
2018-06-24T08:35:40.862Z,1.70
2018-06-24T08:38:10.123Z,1.37
2018-06-24T08:40:39.388Z,1.63
2018-06-24T08:43:08.653Z,1.70
2018-06-24T08:45:37.894Z,1.43
2018-06-24T08:48:07.217Z,1.87
2018-06-24T08:50:36.493Z,1.30
2018-06-24T08:53:05.845Z,1.60
2018-06-24T08:55:35.100Z,1.37
2018-06-24T08:58:04.337Z,1.70
2018-06-24T09:00:34.936Z,1.70
2018-06-24T09:03:04.153Z,1.70
2018-06-24T09:05:33.398Z,1.20
2018-06-24T09:08:02.721Z,1.30
2018-06-24T09:10:31.995Z,1.70
2018-06-24T09:13:01.307Z,1.53
2018-06-24T09:15:30.579Z,1.70
2018-06-24T09:17:59.901Z,1.60
2018-06-24T09:20:33.054Z,1.40
2018-06-24T09:23:02.331Z,1.47
2018-06-24T09:25:31.236Z,1.50
2018-06-24T09:28:00.467Z,1.40
2018-06-24T09:30:29.770Z,1.90
2018-06-24T09:32:59.045Z,1.60
2018-06-24T09:35:28.365Z,1.40
2018-06-24T09:37:57.646Z,1.70
2018-06-24T09:40:26.949Z,1.73
2018-06-24T09:42:56.265Z,1.30
2018-06-24T09:45:25.225Z,1.60
2018-06-24T09:47:54.437Z,1.60
2018-06-24T09:50:23.701Z,1.63
2018-06-24T09:52:53.031Z,1.57
2018-06-24T09:55:22.286Z,1.53
2018-06-24T09:57:51.614Z,1.57
2018-06-24T10:00:22.206Z,1.70
2018-06-24T10:02:52.608Z,1.57
2018-06-24T10:05:22.442Z,1.40
2018-06-24T10:07:51.834Z,1.90
2018-06-24T10:10:21.183Z,1.63
2018-06-24T10:12:50.455Z,1.47
2018-06-24T10:15:19.757Z,1.40
2018-06-24T10:17:49.357Z,1.47
2018-06-24T10:20:18.642Z,1.50
2018-06-24T10:22:47.928Z,1.30
2018-06-24T10:25:17.263Z,1.47
2018-06-24T10:27:46.541Z,1.40
2018-06-24T10:30:15.870Z,1.47
2018-06-24T10:32:45.117Z,1.83
2018-06-24T10:35:14.393Z,1.60
2018-06-24T10:37:43.643Z,1.70
2018-06-24T10:40:12.910Z,1.70
2018-06-24T10:42:42.140Z,1.50
2018-06-24T10:45:11.358Z,1.50
2018-06-24T10:47:40.626Z,1.90
2018-06-24T10:50:09.859Z,1.63
2018-06-24T10:52:39.114Z,1.47
2018-06-24T10:55:08.042Z,1.60
2018-06-24T10:57:37.166Z,2.20
2018-06-24T11:00:06.430Z,1.70
2018-06-24T11:02:35.822Z,1.83
2018-06-24T11:05:05.210Z,1.70
2018-06-24T11:07:34.477Z,1.40
2018-06-24T11:10:03.855Z,1.57
2018-06-24T11:12:33.118Z,1.47
2018-06-24T11:15:02.387Z,1.60
2018-06-24T11:17:31.651Z,1.60
2018-06-24T11:20:00.929Z,1.80
2018-06-24T11:22:30.391Z,2.30
2018-06-24T11:25:00.417Z,2.20
2018-06-24T11:27:29.669Z,2.83
2018-06-24T11:29:59.343Z,3.00
2018-06-24T11:32:28.587Z,3.20
2018-06-24T11:34:57.961Z,2.83
2018-06-24T11:37:27.213Z,2.83
2018-06-24T11:39:56.559Z,2.80
2018-06-24T11:42:25.974Z,3.00
2018-06-24T11:44:55.219Z,3.27
2018-06-24T11:47:24.506Z,3.60
2018-06-24T11:49:53.837Z,3.60
2018-06-24T11:52:23.126Z,3.10
2018-06-24T11:54:52.378Z,3.07
2018-06-24T11:57:21.679Z,3.20
2018-06-24T11:59:50.680Z,3.00
2018-06-24T12:02:20.268Z,3.40
2018-06-24T12:04:50.591Z,3.50
2018-06-24T12:07:20.670Z,3.03
2018-06-24T12:09:50.199Z,3.70
2018-06-24T12:12:19.967Z,3.33
2018-06-24T12:14:50.203Z,3.70
2018-06-24T12:17:19.576Z,3.17
2018-06-24T12:19:48.851Z,4.00
2018-06-24T12:22:18.113Z,3.03
2018-06-24T12:24:47.346Z,3.23
2018-06-24T12:27:16.678Z,2.40
2018-06-24T12:29:46.023Z,3.63
2018-06-24T12:32:15.871Z,4.70
2018-06-24T12:34:45.123Z,4.10
2018-06-24T12:37:14.441Z,3.83
2018-06-24T12:39:43.710Z,3.23
2018-06-24T12:42:12.969Z,3.50
2018-06-24T12:44:42.241Z,3.50
2018-06-24T12:47:11.204Z,3.57
2018-06-24T12:49:40.319Z,3.30
2018-06-24T12:52:09.569Z,3.00
2018-06-24T12:54:38.835Z,3.27
2018-06-24T12:57:08.238Z,3.00
2018-06-24T12:59:37.725Z,3.37
2018-06-24T13:02:06.822Z,3.13
2018-06-24T13:04:36.106Z,3.23
2018-06-24T13:07:05.577Z,2.80
2018-06-24T13:09:34.834Z,3.40
2018-06-24T13:12:04.076Z,3.10
2018-06-24T13:14:33.362Z,2.93
2018-06-24T13:17:02.610Z,3.13
2018-06-24T13:19:31.862Z,3.07
2018-06-24T13:22:01.218Z,2.73
2018-06-24T13:24:30.532Z,3.23
2018-06-24T13:26:59.959Z,2.90
2018-06-24T13:29:29.241Z,2.80
2018-06-24T13:31:58.519Z,3.27
2018-06-24T13:34:27.790Z,3.37
2018-06-24T13:36:57.157Z,3.40
2018-06-24T13:39:26.438Z,4.00
2018-06-24T13:41:55.721Z,4.80
2018-06-24T13:44:24.983Z,5.20
2018-06-24T13:46:54.305Z,4.53
2018-06-24T13:49:23.793Z,5.10
2018-06-24T13:51:53.106Z,4.80
2018-06-24T13:54:22.394Z,4.57
2018-06-24T13:56:51.817Z,4.63
2018-06-24T13:59:21.126Z,4.90
2018-06-24T14:01:50.377Z,5.03
2018-06-24T14:04:19.689Z,4.43
2018-06-24T14:06:48.936Z,4.17
2018-06-24T14:09:18.178Z,4.47
2018-06-24T14:11:47.427Z,4.03
2018-06-24T14:14:16.710Z,4.00
2018-06-24T14:16:45.958Z,3.60
2018-06-24T14:19:15.207Z,3.83
2018-06-24T14:21:44.484Z,3.87
2018-06-24T14:24:13.761Z,3.53
2018-06-24T14:26:44.011Z,3.97
2018-06-24T14:29:13.270Z,3.50
2018-06-24T14:31:42.502Z,3.33
2018-06-24T14:34:11.892Z,3.53
2018-06-24T14:36:41.164Z,3.50
2018-06-24T14:39:11.356Z,3.37
2018-06-24T14:41:41.166Z,3.77
2018-06-24T14:44:10.469Z,3.37
2018-06-24T14:46:39.692Z,3.27
2018-06-24T14:49:08.981Z,3.37
2018-06-24T14:51:38.210Z,3.47
2018-06-24T14:54:07.438Z,2.90
2018-06-24T14:56:36.729Z,3.40
2018-06-24T14:59:06.209Z,2.83
2018-06-24T15:01:35.632Z,2.70
2018-06-24T15:04:04.906Z,3.03
2018-06-24T15:06:34.170Z,2.70
2018-06-24T15:09:04.683Z,2.90
2018-06-24T15:11:34.097Z,2.97
2018-06-24T15:14:03.370Z,2.80
2018-06-24T15:16:32.783Z,2.87
2018-06-24T15:19:02.030Z,2.87
2018-06-24T15:21:31.877Z,3.07
2018-06-24T15:24:01.187Z,3.00
2018-06-24T15:26:30.594Z,2.73
2018-06-24T15:28:59.939Z,2.80
2018-06-24T15:31:29.216Z,3.20
2018-06-24T15:33:58.507Z,3.10
2018-06-24T15:36:28.031Z,2.83
2018-06-24T15:41:54.806Z,2.70
2018-06-24T15:44:23.967Z,2.40
2018-06-24T15:46:53.297Z,2.93
2018-06-24T15:49:22.535Z,2.73
2018-06-24T15:51:51.819Z,2.57
2018-06-24T15:54:21.066Z,2.57
2018-06-24T15:56:50.358Z,2.33
2018-06-24T16:02:19.581Z,2.80
2018-06-24T16:04:48.941Z,2.70
2018-06-24T16:07:18.198Z,2.37
2018-06-24T16:09:47.430Z,2.70
2018-06-24T16:12:16.687Z,2.80
2018-06-24T16:14:45.959Z,2.73
2018-06-24T16:17:15.210Z,2.20
2018-06-24T16:19:44.524Z,2.70
2018-06-24T16:22:13.747Z,2.77
2018-06-24T16:24:43.085Z,2.83
2018-06-24T16:27:12.307Z,3.13
2018-06-24T16:29:41.789Z,2.70
2018-06-24T16:32:11.113Z,2.97
2018-06-24T16:34:40.370Z,2.73
2018-06-24T16:37:09.718Z,2.93
2018-06-24T16:39:38.973Z,3.27
2018-06-24T16:42:08.262Z,3.30
2018-06-24T16:44:37.487Z,3.13
2018-06-24T16:47:06.826Z,2.80
2018-06-24T16:49:36.086Z,2.77
2018-06-24T16:52:05.386Z,2.83
2018-06-24T16:54:34.609Z,2.30
2018-06-24T16:57:03.853Z,2.93
2018-06-24T16:59:33.158Z,2.50
2018-06-24T17:02:02.406Z,2.80
2018-06-24T17:04:31.653Z,2.83
2018-06-24T17:07:00.973Z,2.40
2018-06-24T17:09:30.301Z,2.43
2018-06-24T17:11:59.582Z,2.87
2018-06-24T17:14:29.171Z,2.50
2018-06-24T17:16:58.175Z,2.90
2018-06-24T17:19:27.515Z,2.50
2018-06-24T17:21:56.805Z,3.00
2018-06-24T17:24:26.088Z,2.40
2018-06-24T17:26:55.536Z,2.10
2018-06-24T17:29:24.919Z,2.37
2018-06-24T17:31:54.580Z,2.50
2018-06-24T17:34:23.829Z,2.77
2018-06-24T17:36:53.229Z,2.60
2018-06-24T17:39:22.627Z,2.53
2018-06-24T17:41:51.934Z,2.30
2018-06-24T17:44:21.209Z,2.00
2018-06-24T17:46:50.635Z,2.90
2018-06-24T17:49:20.284Z,2.60
2018-06-24T17:51:49.522Z,2.70
2018-06-24T17:54:18.625Z,2.43
2018-06-24T17:56:47.761Z,2.67
2018-06-24T17:59:17.014Z,2.53
2018-06-24T18:01:46.263Z,2.50
2018-06-24T18:04:15.747Z,2.50
2018-06-24T18:06:45.010Z,2.17
2018-06-24T18:09:14.274Z,2.33
2018-06-24T18:11:43.531Z,2.67
2018-06-24T18:14:12.807Z,2.23
2018-06-24T18:16:42.094Z,2.17
2018-06-24T18:19:11.402Z,2.27
2018-06-24T18:21:40.661Z,2.40
2018-06-24T18:24:09.914Z,2.20
2018-06-24T18:26:39.342Z,2.20
2018-06-24T18:29:08.623Z,2.27
2018-06-24T18:31:38.157Z,2.00
2018-06-24T18:34:07.389Z,2.53
2018-06-24T18:36:36.666Z,2.00
2018-06-24T18:39:08.083Z,2.20
2018-06-24T18:41:37.602Z,2.17
2018-06-24T18:44:06.850Z,2.30
2018-06-24T18:46:36.362Z,2.17
2018-06-24T18:49:05.734Z,2.20
2018-06-24T18:51:35.048Z,2.20
2018-06-24T18:54:04.330Z,1.97
2018-06-24T18:56:33.333Z,2.20
2018-06-24T18:59:02.737Z,1.97
2018-06-24T19:01:31.949Z,2.03
2018-06-24T19:04:01.213Z,2.40
2018-06-24T19:06:30.491Z,2.47
2018-06-24T19:08:59.730Z,2.43
2018-06-24T19:11:28.978Z,2.30
2018-06-24T19:13:58.258Z,2.10
2018-06-24T19:16:27.625Z,2.00
2018-06-24T19:18:56.879Z,1.93
2018-06-24T19:21:26.146Z,1.83
2018-06-24T19:23:55.403Z,1.90
2018-06-24T19:26:24.909Z,1.73
2018-06-24T19:28:54.233Z,1.80
2018-06-24T19:31:23.498Z,1.93
2018-06-24T19:33:52.774Z,1.70
2018-06-24T19:36:22.118Z,2.00
2018-06-24T19:38:51.426Z,1.90
2018-06-24T19:41:20.715Z,1.80
2018-06-24T19:43:50.310Z,1.80
2018-06-24T19:46:19.939Z,1.87
2018-06-24T19:48:49.368Z,2.00
2018-06-24T19:51:20.346Z,1.70
2018-06-24T19:53:50.706Z,1.70
2018-06-24T19:56:19.989Z,1.87
2018-06-24T19:58:49.724Z,1.97
2018-06-24T20:01:19.310Z,1.93
2018-06-24T20:03:48.267Z,1.70
2018-06-24T20:06:17.389Z,1.83
2018-06-24T20:08:46.718Z,1.77
2018-06-24T20:11:15.953Z,1.80
2018-06-24T20:13:45.213Z,2.00
2018-06-24T20:16:15.492Z,1.80
2018-06-24T20:18:44.486Z,2.33
2018-06-24T20:21:13.778Z,2.03
2018-06-24T20:23:43.001Z,1.83
2018-06-24T20:26:12.395Z,2.10
2018-06-24T20:28:41.998Z,2.00
2018-06-24T20:31:11.927Z,1.90
2018-06-24T20:33:41.169Z,2.00
2018-06-24T20:36:10.625Z,2.00
2018-06-24T20:38:40.835Z,1.77
2018-06-24T20:41:10.718Z,2.03
2018-06-24T20:43:40.721Z,1.70
2018-06-24T20:46:10.846Z,2.20
2018-06-24T20:48:41.026Z,1.87
2018-06-24T20:51:11.535Z,2.00
2018-06-24T20:53:40.822Z,1.70
2018-06-24T20:56:10.324Z,1.70
2018-06-24T20:58:39.595Z,2.03
2018-06-24T21:01:11.368Z,2.03
2018-06-24T21:03:41.752Z,2.10
2018-06-24T21:06:11.030Z,1.80
2018-06-24T21:08:40.467Z,2.00
2018-06-24T21:11:09.841Z,2.00
2018-06-24T21:13:42.008Z,1.90
2018-06-24T21:16:11.856Z,1.70
2018-06-24T21:18:41.451Z,1.80
2018-06-24T21:21:10.982Z,1.80
2018-06-24T21:23:41.217Z,1.77
2018-06-24T21:26:11.313Z,1.80
2018-06-24T21:28:43.598Z,1.63
2018-06-24T21:31:12.978Z,1.77
2018-06-24T21:33:42.922Z,1.50
2018-06-24T21:36:13.237Z,1.43
2018-06-24T21:38:42.978Z,1.50
2018-06-24T21:41:13.306Z,1.80
2018-06-24T21:43:44.097Z,1.60
2018-06-24T21:46:14.402Z,2.57
2018-06-24T21:48:44.453Z,2.27
2018-06-24T21:51:14.360Z,2.47
2018-06-24T21:53:43.900Z,2.33
2018-06-24T21:56:19.903Z,2.30
2018-06-24T21:58:49.945Z,2.47
2018-06-24T22:01:20.179Z,2.50
2018-06-24T22:03:49.495Z,2.80
2018-06-24T22:06:19.454Z,2.10
2018-06-24T22:08:50.836Z,2.60
2018-06-24T22:11:22.801Z,2.97
2018-06-24T22:13:52.534Z,2.40
2018-06-24T22:16:22.209Z,2.73
2018-06-24T22:18:52.170Z,2.97
2018-06-24T22:21:22.115Z,2.73
2018-06-24T22:23:51.383Z,2.43
2018-06-24T22:26:23.062Z,2.70
2018-06-24T22:29:23.050Z,2.60
2018-06-24T22:31:53.457Z,2.40
2018-06-24T22:34:24.093Z,2.37
2018-06-24T22:36:53.750Z,2.80
2018-06-24T22:39:26.206Z,2.77
2018-06-24T22:41:56.494Z,2.87
2018-06-24T22:44:26.333Z,2.60
2018-06-24T22:46:55.927Z,2.43
2018-06-24T22:49:25.234Z,2.40
2018-06-24T22:51:54.565Z,2.23
2018-06-24T22:54:24.125Z,2.27
2018-06-24T22:56:53.609Z,2.83
2018-06-24T22:59:35.076Z,2.13
2018-06-24T23:02:05.359Z,2.80
2018-06-24T23:04:34.932Z,2.63
2018-06-24T23:07:04.343Z,2.63
2018-06-24T23:09:34.234Z,2.53
2018-06-24T23:12:03.487Z,2.93
2018-06-24T23:14:34.209Z,2.37
2018-06-24T23:17:05.245Z,2.53
2018-06-24T23:19:35.411Z,2.60
2018-06-24T23:22:05.583Z,2.90
2018-06-24T23:24:34.886Z,2.50
2018-06-24T23:27:04.176Z,2.17
2018-06-24T23:29:33.437Z,2.30
2018-06-24T23:32:02.731Z,2.50
2018-06-24T23:34:31.966Z,2.50
2018-06-24T23:37:01.302Z,2.40
2018-06-24T23:39:30.624Z,2.40
2018-06-24T23:41:59.924Z,2.20
2018-06-24T23:44:29.254Z,2.00
2018-06-24T23:46:58.474Z,2.17
2018-06-24T23:49:28.010Z,2.33
2018-06-24T23:51:57.431Z,2.60
2018-06-24T23:54:26.790Z,2.40
2018-06-24T23:56:56.090Z,2.60
2018-06-24T23:59:25.814Z,2.50
